Paxton, Texas
Current Conditions -  °F | °C
As of 5:56 PM on Monday 24 Nov 2014 (Local Time) from KSHV Reporting Station
Broken Clouds Broken Clouds  
Wind Chill: 54°   Ceiling: 25000
Heat Index: 54°   Visibility: 10mi
Dew Point: 33°   Wind: 6mph
Humidity: 45%   Direction: 290°WNW
Pressure: 30.04"   Gusts: NA
Location:  31.9194°N, 94.0667°W
Report Text: KSHV 242356Z 29005KT 10SM FEW140 SCT200 BKN250 12/01 A3004 RMK AO2 SLP171 T01220006 10172 20122 51014
Loading
Personal Weather Stations






























Interactive Weather Map New forecast layout! Learn more

10-Day Weather Forecast

Advertisements
Track Severe Weather on mobile